createdAt,value
2018-08-03T00:02:32.474Z,42.45
2018-08-03T00:07:25.044Z,43.38
2018-08-03T00:12:17.605Z,43.40
2018-08-03T00:17:10.168Z,43.57
2018-08-03T00:22:02.726Z,43.50
2018-08-03T00:26:55.241Z,43.54
2018-08-03T00:31:47.806Z,43.19
2018-08-03T00:36:40.415Z,43.28
2018-08-03T00:41:33.027Z,43.64
2018-08-03T00:46:25.575Z,43.38
2018-08-03T00:51:18.102Z,43.51
2018-08-03T00:56:10.662Z,43.69
2018-08-03T01:01:03.276Z,43.95
2018-08-03T01:05:55.884Z,44.99
2018-08-03T01:10:48.438Z,44.69
2018-08-03T01:15:40.994Z,44.97
2018-08-03T01:20:33.552Z,45.04
2018-08-03T01:25:26.159Z,45.40
2018-08-03T01:30:18.663Z,44.80
2018-08-03T01:35:11.362Z,45.45
2018-08-03T01:40:04.296Z,44.87
2018-08-03T01:44:56.878Z,44.81
2018-08-03T01:49:49.459Z,45.68
2018-08-03T01:54:41.994Z,45.05
2018-08-03T01:59:34.584Z,45.95
2018-08-03T02:04:27.151Z,46.18
2018-08-03T02:09:19.747Z,46.42
2018-08-03T02:14:12.344Z,46.57
2018-08-03T02:19:04.907Z,46.95
2018-08-03T02:23:57.551Z,47.09
2018-08-03T02:28:50.112Z,46.38
2018-08-03T02:33:42.630Z,46.69
2018-08-03T02:38:35.154Z,46.54
2018-08-03T02:43:27.806Z,46.92
2018-08-03T02:48:20.324Z,47.21
2018-08-03T02:53:12.931Z,46.64
2018-08-03T02:58:05.481Z,46.86
2018-08-03T03:02:58.030Z,47.18
2018-08-03T03:07:50.591Z,47.74
2018-08-03T03:12:43.190Z,47.22
2018-08-03T03:17:35.806Z,48.05
2018-08-03T03:22:28.357Z,47.46
2018-08-03T03:27:21.009Z,47.49
2018-08-03T03:32:13.611Z,47.93
2018-08-03T03:37:06.359Z,47.86
2018-08-03T03:41:59.017Z,48.87
2018-08-03T03:46:51.597Z,48.98
2018-08-03T03:51:44.150Z,49.11
2018-08-03T03:56:36.841Z,49.27
2018-08-03T04:01:29.450Z,48.41
2018-08-03T04:06:22.024Z,48.77
2018-08-03T04:11:14.566Z,49.64
2018-08-03T04:16:07.251Z,49.44
2018-08-03T04:20:59.841Z,49.96
2018-08-03T04:25:52.386Z,49.66
2018-08-03T04:30:45.038Z,49.85
2018-08-03T04:35:37.982Z,50.41
2018-08-03T04:40:30.589Z,50.07
2018-08-03T04:45:23.131Z,50.14
2018-08-03T04:50:15.756Z,50.16
2018-08-03T04:55:08.403Z,49.86
2018-08-03T05:00:00.956Z,50.22
2018-08-03T05:04:53.510Z,50.62
2018-08-03T05:09:46.171Z,50.06
2018-08-03T05:14:38.852Z,49.97
2018-08-03T05:19:31.460Z,50.42
2018-08-03T05:24:24.060Z,50.00
2018-08-03T05:29:16.658Z,50.15
2018-08-03T05:34:09.299Z,50.62
2018-08-03T05:39:02.149Z,50.97
2018-08-03T05:43:54.743Z,49.86
2018-08-03T05:48:47.283Z,50.45
2018-08-03T05:53:39.925Z,49.58
2018-08-03T05:58:32.555Z,49.25
2018-08-03T06:03:25.198Z,49.85
2018-08-03T06:08:17.787Z,48.91
2018-08-03T06:13:10.820Z,49.02
2018-08-03T06:18:03.428Z,49.55
2018-08-03T06:22:56.006Z,49.10
2018-08-03T06:27:48.686Z,48.71
2018-08-03T06:32:41.315Z,49.52
2018-08-03T06:37:33.966Z,48.81
2018-08-03T06:42:26.619Z,48.67
2018-08-03T06:47:19.199Z,48.99
2018-08-03T06:52:11.923Z,48.57
2018-08-03T06:57:04.820Z,48.63
2018-08-03T07:01:57.423Z,49.29
2018-08-03T07:06:50.056Z,48.34
2018-08-03T07:11:42.623Z,48.30
2018-08-03T07:16:35.212Z,45.12
2018-08-03T07:21:27.818Z,41.61
2018-08-03T07:26:20.340Z,39.56
2018-08-03T07:31:13.087Z,35.95
2018-08-03T07:36:05.724Z,34.96
2018-08-03T07:40:58.281Z,33.33
2018-08-03T07:45:50.852Z,32.77
2018-08-03T07:50:43.417Z,31.59
2018-08-03T07:55:36.113Z,31.78
2018-08-03T08:00:28.709Z,31.58
2018-08-03T08:05:21.261Z,31.10
2018-08-03T08:10:14.060Z,31.37
2018-08-03T08:15:06.818Z,31.55
2018-08-03T08:19:59.367Z,30.31
2018-08-03T08:24:51.959Z,30.76
2018-08-03T08:29:44.493Z,31.10
2018-08-03T08:34:37.101Z,30.78
2018-08-03T08:39:29.680Z,31.40
2018-08-03T08:44:22.295Z,32.46
2018-08-03T08:49:14.909Z,32.40
2018-08-03T08:54:07.616Z,32.47
2018-08-03T08:59:00.228Z,31.53
2018-08-03T09:03:52.889Z,32.02
2018-08-03T09:08:45.470Z,32.16
2018-08-03T09:13:38.189Z,31.05
2018-08-03T09:18:30.995Z,31.45
2018-08-03T09:23:23.637Z,31.29
2018-08-03T09:28:16.216Z,31.32
2018-08-03T09:33:08.835Z,30.33
2018-08-03T09:38:01.435Z,30.46
2018-08-03T09:42:54.037Z,31.10
2018-08-03T09:47:46.634Z,30.57
2018-08-03T09:52:39.198Z,30.94
2018-08-03T09:57:31.869Z,30.27
2018-08-03T10:02:24.423Z,29.61
2018-08-03T10:07:16.988Z,29.42
2018-08-03T10:12:09.595Z,29.77
2018-08-03T10:17:02.218Z,29.11
2018-08-03T10:21:54.801Z,29.70
2018-08-03T10:26:47.379Z,28.54
2018-08-03T10:31:40.067Z,29.03
2018-08-03T10:36:32.635Z,29.51
2018-08-03T10:41:25.206Z,28.19
2018-08-03T10:46:17.811Z,28.10
2018-08-03T10:51:10.427Z,28.50
2018-08-03T10:56:03.065Z,28.18
2018-08-03T11:00:55.626Z,27.39
2018-08-03T11:05:48.239Z,28.08
2018-08-03T11:10:40.970Z,27.78
2018-08-03T11:15:33.529Z,26.71
2018-08-03T11:20:26.099Z,27.10
2018-08-03T11:25:18.649Z,26.53
2018-08-03T11:30:11.603Z,26.41
2018-08-03T11:35:04.955Z,26.61
2018-08-03T11:45:22.906Z,26.05
2018-08-03T11:50:15.434Z,25.86
2018-08-03T11:55:08.061Z,26.35
2018-08-03T12:00:00.632Z,25.95
2018-08-03T12:04:53.239Z,26.46
2018-08-03T12:09:45.801Z,25.89
2018-08-03T12:14:38.381Z,26.34
2018-08-03T12:19:30.930Z,25.60
2018-08-03T12:24:23.546Z,25.69
2018-08-03T12:29:16.147Z,25.82
2018-08-03T12:34:08.757Z,26.16
2018-08-03T12:39:01.318Z,25.95
2018-08-03T12:43:54.003Z,25.18
2018-08-03T12:48:46.571Z,25.34
2018-08-03T12:53:39.141Z,25.28
2018-08-03T12:58:31.688Z,24.98
2018-08-03T13:03:24.285Z,25.34
2018-08-03T13:08:16.947Z,24.83
2018-08-03T13:13:09.425Z,25.52
2018-08-03T13:18:01.938Z,25.49
2018-08-03T13:23:01.120Z,25.50
2018-08-03T13:27:53.710Z,25.28
2018-08-03T13:32:46.271Z,24.79
2018-08-03T13:37:38.814Z,24.53
2018-08-03T13:42:31.430Z,24.81
2018-08-03T13:47:24.025Z,24.99
2018-08-03T13:52:16.630Z,24.11
2018-08-03T13:57:09.254Z,23.71
2018-08-03T14:02:21.170Z,24.25
2018-08-03T14:07:13.737Z,24.09
2018-08-03T14:12:06.412Z,24.16
2018-08-03T14:16:59.004Z,24.07
2018-08-03T14:21:51.631Z,25.14
2018-08-03T14:26:44.208Z,24.31
2018-08-03T14:31:36.853Z,24.48
2018-08-03T14:36:29.345Z,24.56
2018-08-03T14:41:21.945Z,24.06
2018-08-03T14:46:14.556Z,23.86
2018-08-03T14:51:07.233Z,24.23
2018-08-03T14:55:59.837Z,23.73
2018-08-03T15:00:52.454Z,24.54
2018-08-03T15:05:45.064Z,23.88
2018-08-03T15:10:37.650Z,24.39
2018-08-03T15:15:30.245Z,24.68
2018-08-03T15:20:22.825Z,24.13
2018-08-03T15:25:15.398Z,24.18
2018-08-03T15:30:09.713Z,23.88
2018-08-03T15:35:02.360Z,24.79
2018-08-03T15:39:54.975Z,24.82
2018-08-03T15:44:47.571Z,24.26
2018-08-03T15:49:40.190Z,24.75
2018-08-03T15:54:32.806Z,24.31
2018-08-03T15:59:25.338Z,25.29
2018-08-03T16:04:18.680Z,25.26
2018-08-03T16:09:11.241Z,25.14
2018-08-03T16:14:03.757Z,25.34
2018-08-03T16:18:56.371Z,25.34
2018-08-03T16:23:48.970Z,24.68
2018-08-03T16:28:41.714Z,25.15
2018-08-03T16:33:34.347Z,25.48
2018-08-03T16:38:26.977Z,24.98
2018-08-03T16:43:19.753Z,25.09
2018-08-03T16:48:12.326Z,25.69
2018-08-03T16:53:04.934Z,25.40
2018-08-03T16:57:57.499Z,25.37
2018-08-03T17:02:50.312Z,25.85
2018-08-03T17:07:42.922Z,26.63
2018-08-03T17:12:35.595Z,25.95
2018-08-03T17:17:28.194Z,26.16
2018-08-03T17:22:20.849Z,26.37
2018-08-03T17:27:13.398Z,25.83
2018-08-03T17:32:06.101Z,26.58
2018-08-03T17:36:58.614Z,27.16
2018-08-03T17:41:51.183Z,26.89
2018-08-03T17:46:43.813Z,27.31
2018-08-03T17:51:36.481Z,27.48
2018-08-03T17:56:29.051Z,27.14
2018-08-03T18:01:21.614Z,27.10
2018-08-03T18:06:14.151Z,27.60
2018-08-03T18:11:06.905Z,27.98
2018-08-03T18:15:59.484Z,27.19
2018-08-03T18:20:52.037Z,27.38
2018-08-03T18:25:44.616Z,27.14
2018-08-03T18:30:37.198Z,27.38
2018-08-03T18:35:29.855Z,28.00
2018-08-03T18:40:22.439Z,28.42
2018-08-03T18:45:14.971Z,28.04
2018-08-03T18:50:07.607Z,28.14
2018-08-03T18:55:00.201Z,28.43
2018-08-03T18:59:52.782Z,28.93
2018-08-03T19:04:45.362Z,28.45
2018-08-03T19:09:37.916Z,28.55
2018-08-03T19:14:30.611Z,28.67
2018-08-03T19:19:23.199Z,30.47
2018-08-03T19:24:15.772Z,34.86
2018-08-03T19:29:08.361Z,34.67
2018-08-03T19:34:00.926Z,35.07
2018-08-03T19:38:53.540Z,35.01
2018-08-03T19:43:46.227Z,34.70
2018-08-03T19:48:38.807Z,35.19
2018-08-03T19:53:31.333Z,35.66
2018-08-03T19:58:24.003Z,35.58
2018-08-03T20:03:16.558Z,36.29
2018-08-03T20:08:09.120Z,36.43
2018-08-03T20:13:01.719Z,37.00
2018-08-03T20:17:54.306Z,36.87
2018-08-03T20:22:46.897Z,35.26
2018-08-03T20:27:39.429Z,35.44
2018-08-03T20:32:32.023Z,35.24
2018-08-03T20:37:24.593Z,34.95
2018-08-03T20:42:17.196Z,33.88
2018-08-03T20:47:09.851Z,34.88
2018-08-03T20:52:02.506Z,34.74
2018-08-03T20:56:55.049Z,35.11
2018-08-03T21:01:47.739Z,34.94
2018-08-03T21:06:40.263Z,35.70
2018-08-03T21:11:32.863Z,34.57
2018-08-03T21:16:25.434Z,35.36
2018-08-03T21:21:17.992Z,35.15
2018-08-03T21:26:10.848Z,35.54
2018-08-03T21:31:03.384Z,35.20
2018-08-03T21:35:55.954Z,36.03
2018-08-03T21:40:48.519Z,35.90
2018-08-03T21:45:41.133Z,36.44
2018-08-03T21:50:33.567Z,36.18
2018-08-03T21:55:26.189Z,37.61
2018-08-03T22:00:20.873Z,37.91
2018-08-03T22:05:13.510Z,37.49
2018-08-03T22:10:06.254Z,37.34
2018-08-03T22:14:58.827Z,36.76
2018-08-03T22:19:51.403Z,37.17
2018-08-03T22:24:43.945Z,36.69
2018-08-03T22:29:36.534Z,35.98
2018-08-03T22:34:29.070Z,36.58
2018-08-03T22:39:21.672Z,36.44
2018-08-03T22:44:14.230Z,35.87
2018-08-03T22:49:06.929Z,36.38
2018-08-03T22:53:59.507Z,36.41
2018-08-03T22:58:52.074Z,36.58
2018-08-03T23:03:44.642Z,36.29
2018-08-03T23:08:37.164Z,36.14
2018-08-03T23:13:29.737Z,36.56
2018-08-03T23:18:22.338Z,37.02
2018-08-03T23:23:14.990Z,36.11
2018-08-03T23:28:07.560Z,36.89
2018-08-03T23:33:00.256Z,36.50
2018-08-03T23:37:52.821Z,37.12
2018-08-03T23:42:45.342Z,37.19
2018-08-03T23:47:37.919Z,36.47
2018-08-03T23:52:30.460Z,36.66
2018-08-03T23:57:23.074Z,37.23
